createdAt,value
2023-04-26T00:05:55.795Z,2.90
2023-04-26T00:16:01.527Z,2.30
2023-04-26T00:26:07.705Z,3.50
2023-04-26T00:36:14.005Z,4.00
2023-04-26T00:46:19.698Z,2.70
2023-04-26T00:56:27.404Z,4.10
2023-04-26T01:06:38.620Z,4.60
2023-04-26T01:16:47.743Z,4.50
2023-04-26T01:26:53.619Z,4.50
2023-04-26T01:36:59.270Z,4.30
2023-04-26T01:47:04.944Z,4.30
2023-04-26T01:57:10.612Z,4.70
2023-04-26T02:07:16.221Z,4.30
2023-04-26T02:17:22.911Z,3.80
2023-04-26T02:27:28.900Z,4.80
2023-04-26T02:37:35.215Z,5.90
2023-04-26T02:47:41.173Z,5.50
2023-04-26T02:57:47.067Z,4.90
2023-04-26T03:07:53.090Z,4.60
2023-04-26T03:17:59.326Z,5.40
2023-04-26T03:28:05.440Z,5.30
2023-04-26T03:38:11.209Z,5.80
2023-04-26T03:48:17.542Z,7.80
2023-04-26T03:58:23.408Z,9.30
2023-04-26T04:08:28.975Z,9.20
2023-04-26T04:18:34.661Z,10.30
2023-04-26T04:28:41.491Z,10.90
2023-04-26T04:38:47.331Z,9.70
2023-04-26T04:48:53.573Z,8.70
2023-04-26T04:58:59.589Z,8.90
2023-04-26T05:09:05.911Z,6.40
2023-04-26T05:19:13.449Z,5.10
2023-04-26T05:29:19.112Z,4.20
2023-04-26T05:39:24.832Z,3.80
2023-04-26T05:49:30.610Z,2.40
2023-04-26T05:59:41.460Z,2.40
2023-04-26T06:09:47.140Z,3.10
2023-04-26T06:19:53.080Z,2.10
2023-04-26T06:29:58.820Z,2.10
2023-04-26T06:40:04.898Z,1.90
2023-04-26T06:50:12.796Z,2.80
2023-04-26T07:00:19.707Z,1.40
2023-04-26T07:10:26.217Z,2.80
2023-04-26T07:20:32.057Z,1.60
2023-04-26T07:30:37.931Z,1.50
2023-04-26T07:40:43.873Z,1.60
2023-04-26T08:00:55.228Z,1.30
2023-04-26T08:11:01.098Z,1.20
2023-04-26T08:21:07.089Z,1.40
2023-04-26T08:31:12.772Z,1.90
2023-04-26T08:41:24.920Z,1.60
2023-04-26T08:51:33.292Z,1.00
2023-04-26T09:01:42.213Z,1.60
2023-04-26T09:12:05.004Z,1.50
2023-04-26T09:22:11.725Z,1.70
2023-04-26T09:32:17.462Z,1.30
2023-04-26T09:42:23.115Z,1.20
2023-04-26T09:52:29.451Z,1.50
2023-04-26T10:02:35.910Z,1.20
2023-04-26T10:12:43.673Z,1.30
2023-04-26T10:22:55.051Z,0.90
2023-04-26T10:33:23.913Z,2.30
2023-04-26T10:43:33.022Z,1.60
2023-04-26T10:54:02.628Z,1.10
2023-04-26T11:04:10.350Z,1.60
2023-04-26T11:24:27.955Z,1.30
2023-04-26T11:34:36.584Z,1.40
2023-04-26T11:44:42.629Z,1.40
2023-04-26T11:54:48.314Z,2.10
2023-04-26T12:05:01.432Z,0.80
2023-04-26T12:15:13.911Z,1.10
2023-04-26T12:25:21.848Z,1.10
2023-04-26T12:35:27.820Z,1.10
2023-04-26T12:45:33.964Z,1.70
2023-04-26T12:55:39.796Z,1.80
2023-04-26T13:05:45.801Z,1.50
2023-04-26T13:15:52.105Z,1.00
2023-04-26T13:25:57.852Z,1.50
2023-04-26T13:36:03.605Z,1.10
2023-04-26T13:46:09.469Z,1.00
2023-04-26T13:56:15.429Z,0.70
2023-04-26T14:06:21.323Z,1.30
2023-04-26T14:16:27.704Z,1.80
2023-04-26T14:26:34.039Z,1.10
2023-04-26T14:36:39.862Z,1.20
2023-04-26T14:46:45.638Z,1.00
2023-04-26T14:56:51.466Z,1.50
2023-04-26T15:06:57.881Z,1.40
2023-04-26T15:17:03.648Z,1.10
2023-04-26T15:27:10.130Z,1.50
2023-04-26T15:37:15.826Z,1.40
2023-04-26T15:47:21.609Z,1.30
2023-04-26T15:57:27.566Z,1.20
2023-04-26T16:07:33.955Z,1.20
2023-04-26T16:17:40.357Z,1.60
2023-04-26T16:27:45.961Z,1.40
2023-04-26T16:37:51.792Z,1.80
2023-04-26T16:47:57.464Z,2.20
2023-04-26T16:58:03.367Z,1.80
2023-04-26T17:08:09.354Z,1.50
2023-04-26T17:18:15.268Z,1.70
2023-04-26T17:28:21.062Z,1.90
2023-04-26T17:38:27.157Z,2.40
2023-04-26T17:48:33.000Z,2.40
2023-04-26T17:58:38.779Z,2.80
2023-04-26T18:08:45.250Z,2.50
2023-04-26T18:18:51.140Z,2.30
2023-04-26T18:28:57.120Z,1.70
2023-04-26T18:39:03.067Z,36.10
2023-04-26T18:49:08.763Z,11.40
2023-04-26T18:59:14.570Z,7.50
2023-04-26T19:09:20.694Z,7.20
2023-04-26T19:19:26.402Z,11.40
2023-04-26T19:29:32.176Z,6.90
2023-04-26T19:39:38.380Z,12.10
2023-04-26T19:49:44.100Z,11.20
2023-04-26T19:59:49.940Z,8.20
2023-04-26T20:09:56.075Z,7.30
2023-04-26T20:20:02.175Z,6.20
2023-04-26T20:30:10.338Z,8.00
2023-04-26T20:40:16.449Z,5.20
2023-04-26T20:50:22.896Z,6.50
2023-04-26T21:00:28.979Z,4.60
2023-04-26T21:10:35.184Z,5.60
2023-04-26T21:20:41.536Z,5.20
2023-04-26T21:30:47.800Z,5.30
2023-04-26T21:40:54.139Z,5.80
2023-04-26T21:51:00.361Z,5.40
2023-04-26T22:01:14.331Z,5.10
2023-04-26T22:11:21.730Z,6.40
2023-04-26T22:21:28.578Z,7.60
2023-04-26T22:41:39.711Z,10.70
2023-04-26T22:51:57.383Z,11.80
2023-04-26T23:02:08.325Z,10.40
2023-04-26T23:12:17.642Z,12.40
2023-04-26T23:22:24.217Z,12.10
2023-04-26T23:32:30.439Z,12.40
2023-04-26T23:42:36.640Z,12.00
2023-04-26T23:52:42.857Z,14.30
